Adelaide Regional Office, South Australia

7:46 AM ACDT on October 24, 2014 (GMT +1030)
Linden Park | Change Station
CLOSE
Current Station
Personal Weather Station
Location: Linden Park, SOUTH AUSTRALIA
Elevation: 318 ft
Nearby Weather Stations

Elev 318 ft 34.95 °S, 138.64 °E | Updated 16 seconds ago

Clear
Clear
62.2 °F
Feels Like 62.2 °F
N
0.0
Wind Variable Wind from North
Gusts 0.0 mph

Today
High -- | Low -- °F
--% Chance of Precip.
Yesterday
High -- | Low -- °F
Precip. -- in
6:22 AM 7:37 PM
Waning Crescent, 0% visible
Pressure 29.95 in
Visibility -9999.0 miles
Clouds
Dew Point 54 °F
Humidity 75%
Rainfall 0.00 in
Snow Depth Not available.
UV 1.0 out of 12
Pollen Not available.
Air Quality Not available.
Flu Activity Not available.
METAR YPAD 232100Z 00000KT CAVOK 16/13 Q1014 FM2300 28010KT CAVOK

More Conditions Fewer Conditions

Pressure 29.95 in
Visibility -9999.0 miles
Clouds
Dew Point 54 °F
Humidity 75%
Rainfall 0.00 in
Snow Depth Not available.
UV 1.0 out of 12
Pollen Not available.
Air Quality Not available.
Flu Activity Not available.
METAR YPAD 232100Z 00000KT CAVOK 16/13 Q1014 FM2300 28010KT CAVOK

More Conditions Fewer Conditions

10-Day Weather Forecast

Almanac

Astronomy

Oct. 24, 2014 Rise Set
Actual Time 6:22 AM ACDT 7:37 PM ACDT
Civil Twilight 5:56 AM ACDT 8:03 PM ACDT
Nautical Twilight 5:25 AM ACDT 8:35 PM ACDT
Astronomical Twilight 4:52 AM ACDT 9:07 PM ACDT
Moon 6:28 AM ACDT (10/24) 7:57 PM ACDT (10/24)
Length of Visible Light 14h 07m
Length of Day
13h 14m
Tomorrow will be 2m 4s longer.
Waning Crescent, 0% of the Moon is Illuminated
Oct 23
Waning Crescent
Oct 23
New
Oct 30
First Quarter
Nov 6
Full
Nov 14
Last Quarter

Yesterday's Extremes

Country Highs Country Lows

Community

WunderPhotos

Upload Photos

1,764,372 photos uploaded!

WunderBlogs® & News

Nearby

Snow Depth

Not available.

Earthquake Activity

City Distance Mag. Time & Date
No recent earthquake activity has been reported nearby.
Minimum magnitude displayed is 2.5.

Coastal Water Temperatures

Place Temperature
No Stations Reporting

Nearby Weather Stations